sensor_id;sensor_type;location;lat;lon;timestamp;P1;durP1;ratioP1;P2;durP2;ratioP2
36411;SDS011;22445;52.100;5.176;2022-12-11T00:01:42;135.35;;;37.72;;
36411;SDS011;22445;52.100;5.176;2022-12-11T00:04:08;130.82;;;37.10;;
36411;SDS011;22445;52.100;5.176;2022-12-11T00:06:34;123.00;;;36.85;;
36411;SDS011;22445;52.100;5.176;2022-12-11T00:09:00;137.98;;;38.58;;
36411;SDS011;22445;52.100;5.176;2022-12-11T00:11:25;148.27;;;37.88;;
36411;SDS011;22445;52.100;5.176;2022-12-11T00:13:51;131.55;;;37.55;;
36411;SDS011;22445;52.100;5.176;2022-12-11T00:16:16;135.05;;;37.22;;
36411;SDS011;22445;52.100;5.176;2022-12-11T00:18:42;143.68;;;39.28;;
36411;SDS011;22445;52.100;5.176;2022-12-11T00:21:09;136.70;;;38.65;;
36411;SDS011;22445;52.100;5.176;2022-12-11T00:23:37;123.18;;;35.15;;
36411;SDS011;22445;52.100;5.176;2022-12-11T00:26:06;136.05;;;36.75;;
36411;SDS011;22445;52.100;5.176;2022-12-11T00:28:33;135.55;;;39.58;;
36411;SDS011;22445;52.100;5.176;2022-12-11T00:31:02;128.52;;;38.75;;
36411;SDS011;22445;52.100;5.176;2022-12-11T00:33:32;128.48;;;37.55;;
36411;SDS011;22445;52.100;5.176;2022-12-11T00:35:58;116.50;;;36.15;;
36411;SDS011;22445;52.100;5.176;2022-12-11T00:38:24;126.60;;;36.90;;
36411;SDS011;22445;52.100;5.176;2022-12-11T00:40:49;125.03;;;39.47;;
36411;SDS011;22445;52.100;5.176;2022-12-11T00:43:15;117.75;;;38.03;;
36411;SDS011;22445;52.100;5.176;2022-12-11T00:45:41;121.70;;;40.35;;
36411;SDS011;22445;52.100;5.176;2022-12-11T00:48:08;121.85;;;38.72;;
36411;SDS011;22445;52.100;5.176;2022-12-11T00:50:35;124.95;;;40.30;;
36411;SDS011;22445;52.100;5.176;2022-12-11T00:53:01;145.15;;;42.20;;
36411;SDS011;22445;52.100;5.176;2022-12-11T00:55:27;150.80;;;42.47;;
36411;SDS011;22445;52.100;5.176;2022-12-11T00:57:53;132.70;;;40.25;;
36411;SDS011;22445;52.100;5.176;2022-12-11T01:00:19;131.75;;;39.58;;
36411;SDS011;22445;52.100;5.176;2022-12-11T01:02:46;123.35;;;39.28;;
36411;SDS011;22445;52.100;5.176;2022-12-11T01:05:12;138.98;;;41.95;;
36411;SDS011;22445;52.100;5.176;2022-12-11T01:07:38;148.23;;;40.47;;
36411;SDS011;22445;52.100;5.176;2022-12-11T01:10:03;144.73;;;42.33;;
36411;SDS011;22445;52.100;5.176;2022-12-11T01:12:49;144.80;;;39.72;;
36411;SDS011;22445;52.100;5.176;2022-12-11T01:15:15;128.52;;;41.72;;
36411;SDS011;22445;52.100;5.176;2022-12-11T01:17:41;124.43;;;39.88;;
36411;SDS011;22445;52.100;5.176;2022-12-11T01:20:06;146.23;;;42.05;;
36411;SDS011;22445;52.100;5.176;2022-12-11T01:22:32;128.88;;;41.83;;
36411;SDS011;22445;52.100;5.176;2022-12-11T01:24:58;131.90;;;41.55;;
36411;SDS011;22445;52.100;5.176;2022-12-11T01:27:23;134.20;;;40.03;;
36411;SDS011;22445;52.100;5.176;2022-12-11T01:29:49;120.47;;;40.67;;
36411;SDS011;22445;52.100;5.176;2022-12-11T01:32:15;135.75;;;42.72;;
36411;SDS011;22445;52.100;5.176;2022-12-11T01:34:40;125.78;;;41.10;;
36411;SDS011;22445;52.100;5.176;2022-12-11T01:37:06;120.10;;;40.05;;
36411;SDS011;22445;52.100;5.176;2022-12-11T01:39:31;115.75;;;41.70;;
36411;SDS011;22445;52.100;5.176;2022-12-11T01:41:57;119.85;;;40.67;;
36411;SDS011;22445;52.100;5.176;2022-12-11T01:47:30;116.43;;;38.15;;
36411;SDS011;22445;52.100;5.176;2022-12-11T01:49:55;100.25;;;36.72;;
36411;SDS011;22445;52.100;5.176;2022-12-11T01:52:21;106.30;;;38.50;;
36411;SDS011;22445;52.100;5.176;2022-12-11T01:54:47;100.15;;;35.65;;
36411;SDS011;22445;52.100;5.176;2022-12-11T01:57:15;91.53;;;33.75;;
36411;SDS011;22445;52.100;5.176;2022-12-11T01:59:42;88.45;;;34.30;;
36411;SDS011;22445;52.100;5.176;2022-12-11T02:02:20;94.05;;;35.45;;
36411;SDS011;22445;52.100;5.176;2022-12-11T02:04:47;93.82;;;35.28;;
36411;SDS011;22445;52.100;5.176;2022-12-11T02:07:13;99.55;;;37.15;;
36411;SDS011;22445;52.100;5.176;2022-12-11T02:09:40;96.15;;;35.22;;
36411;SDS011;22445;52.100;5.176;2022-12-11T02:18:14;89.35;;;32.50;;
36411;SDS011;22445;52.100;5.176;2022-12-11T02:24:06;77.32;;;32.22;;
36411;SDS011;22445;52.100;5.176;2022-12-11T02:27:01;85.43;;;32.05;;
36411;SDS011;22445;52.100;5.176;2022-12-11T02:29:53;87.43;;;33.63;;
36411;SDS011;22445;52.100;5.176;2022-12-11T02:35:34;80.55;;;33.00;;
36411;SDS011;22445;52.100;5.176;2022-12-11T02:38:07;80.80;;;33.65;;
36411;SDS011;22445;52.100;5.176;2022-12-11T02:40:38;84.00;;;35.53;;
36411;SDS011;22445;52.100;5.176;2022-12-11T02:43:05;81.18;;;33.15;;
36411;SDS011;22445;52.100;5.176;2022-12-11T02:45:32;79.13;;;35.35;;
36411;SDS011;22445;52.100;5.176;2022-12-11T02:47:58;76.43;;;33.47;;
36411;SDS011;22445;52.100;5.176;2022-12-11T02:50:25;76.88;;;32.25;;
36411;SDS011;22445;52.100;5.176;2022-12-11T02:52:52;72.97;;;32.45;;
36411;SDS011;22445;52.100;5.176;2022-12-11T02:55:20;73.45;;;32.95;;
36411;SDS011;22445;52.100;5.176;2022-12-11T02:57:47;76.60;;;33.72;;
36411;SDS011;22445;52.100;5.176;2022-12-11T03:00:21;73.18;;;32.60;;
36411;SDS011;22445;52.100;5.176;2022-12-11T03:02:46;65.45;;;30.77;;
36411;SDS011;22445;52.100;5.176;2022-12-11T03:05:12;68.72;;;28.77;;
36411;SDS011;22445;52.100;5.176;2022-12-11T03:07:39;56.03;;;28.42;;
36411;SDS011;22445;52.100;5.176;2022-12-11T03:10:07;57.35;;;28.10;;
36411;SDS011;22445;52.100;5.176;2022-12-11T03:12:38;60.50;;;28.17;;
36411;SDS011;22445;52.100;5.176;2022-12-11T03:15:08;52.85;;;27.30;;
36411;SDS011;22445;52.100;5.176;2022-12-11T03:20:36;52.55;;;26.85;;
36411;SDS011;22445;52.100;5.176;2022-12-11T03:23:24;53.30;;;26.33;;
36411;SDS011;22445;52.100;5.176;2022-12-11T03:26:12;46.88;;;25.20;;
36411;SDS011;22445;52.100;5.176;2022-12-11T03:28:41;43.45;;;23.20;;
36411;SDS011;22445;52.100;5.176;2022-12-11T03:31:12;39.22;;;20.60;;
36411;SDS011;22445;52.100;5.176;2022-12-11T03:33:40;38.65;;;21.02;;
36411;SDS011;22445;52.100;5.176;2022-12-11T03:36:10;41.75;;;21.67;;
36411;SDS011;22445;52.100;5.176;2022-12-11T03:38:51;36.83;;;20.63;;
36411;SDS011;22445;52.100;5.176;2022-12-11T03:41:21;39.28;;;20.92;;
36411;SDS011;22445;52.100;5.176;2022-12-11T03:43:48;41.95;;;22.33;;
36411;SDS011;22445;52.100;5.176;2022-12-11T03:46:16;39.55;;;22.33;;
36411;SDS011;22445;52.100;5.176;2022-12-11T03:48:43;35.97;;;20.45;;
36411;SDS011;22445;52.100;5.176;2022-12-11T03:51:10;38.05;;;21.15;;
36411;SDS011;22445;52.100;5.176;2022-12-11T03:53:37;37.72;;;21.58;;
36411;SDS011;22445;52.100;5.176;2022-12-11T03:56:03;35.05;;;20.70;;
36411;SDS011;22445;52.100;5.176;2022-12-11T03:58:30;39.65;;;22.27;;
36411;SDS011;22445;52.100;5.176;2022-12-11T04:00:56;39.17;;;21.67;;
36411;SDS011;22445;52.100;5.176;2022-12-11T04:03:22;38.90;;;22.17;;
36411;SDS011;22445;52.100;5.176;2022-12-11T04:05:49;38.42;;;22.45;;
36411;SDS011;22445;52.100;5.176;2022-12-11T04:08:16;43.28;;;22.50;;
36411;SDS011;22445;52.100;5.176;2022-12-11T04:10:42;42.88;;;24.30;;
36411;SDS011;22445;52.100;5.176;2022-12-11T04:13:08;37.28;;;22.30;;
36411;SDS011;22445;52.100;5.176;2022-12-11T04:15:34;39.50;;;21.35;;
36411;SDS011;22445;52.100;5.176;2022-12-11T04:18:00;33.80;;;22.00;;
36411;SDS011;22445;52.100;5.176;2022-12-11T04:20:44;40.15;;;23.08;;
36411;SDS011;22445;52.100;5.176;2022-12-11T04:23:28;39.67;;;22.38;;
36411;SDS011;22445;52.100;5.176;2022-12-11T04:26:13;39.20;;;23.33;;
36411;SDS011;22445;52.100;5.176;2022-12-11T04:28:41;44.78;;;24.80;;
36411;SDS011;22445;52.100;5.176;2022-12-11T04:31:11;42.90;;;23.88;;
36411;SDS011;22445;52.100;5.176;2022-12-11T04:33:37;42.83;;;24.85;;
36411;SDS011;22445;52.100;5.176;2022-12-11T04:36:03;45.00;;;24.25;;
36411;SDS011;22445;52.100;5.176;2022-12-11T04:38:29;40.28;;;22.88;;
36411;SDS011;22445;52.100;5.176;2022-12-11T04:40:58;43.85;;;24.17;;
36411;SDS011;22445;52.100;5.176;2022-12-11T04:43:28;42.92;;;23.65;;
36411;SDS011;22445;52.100;5.176;2022-12-11T04:46:00;45.67;;;24.60;;
36411;SDS011;22445;52.100;5.176;2022-12-11T04:48:27;42.67;;;23.05;;
36411;SDS011;22445;52.100;5.176;2022-12-11T04:50:52;39.53;;;23.30;;
36411;SDS011;22445;52.100;5.176;2022-12-11T04:53:18;40.72;;;23.55;;
36411;SDS011;22445;52.100;5.176;2022-12-11T04:55:43;38.50;;;22.95;;
36411;SDS011;22445;52.100;5.176;2022-12-11T04:58:09;41.97;;;23.00;;
36411;SDS011;22445;52.100;5.176;2022-12-11T05:00:34;38.97;;;23.00;;
36411;SDS011;22445;52.100;5.176;2022-12-11T05:03:00;38.20;;;22.00;;
36411;SDS011;22445;52.100;5.176;2022-12-11T05:05:25;37.50;;;23.15;;
36411;SDS011;22445;52.100;5.176;2022-12-11T05:07:51;42.85;;;23.73;;
36411;SDS011;22445;52.100;5.176;2022-12-11T05:10:17;39.00;;;21.70;;
36411;SDS011;22445;52.100;5.176;2022-12-11T05:12:42;37.45;;;22.30;;
36411;SDS011;22445;52.100;5.176;2022-12-11T05:15:08;41.47;;;22.90;;
36411;SDS011;22445;52.100;5.176;2022-12-11T05:17:34;33.60;;;20.27;;
36411;SDS011;22445;52.100;5.176;2022-12-11T05:19:59;37.83;;;22.25;;
36411;SDS011;22445;52.100;5.176;2022-12-11T05:22:25;38.58;;;22.33;;
36411;SDS011;22445;52.100;5.176;2022-12-11T05:24:50;36.15;;;20.27;;
36411;SDS011;22445;52.100;5.176;2022-12-11T05:27:16;32.85;;;19.92;;
36411;SDS011;22445;52.100;5.176;2022-12-11T05:29:41;37.75;;;22.42;;
36411;SDS011;22445;52.100;5.176;2022-12-11T05:32:07;37.85;;;21.33;;
36411;SDS011;22445;52.100;5.176;2022-12-11T05:34:32;41.85;;;23.85;;
36411;SDS011;22445;52.100;5.176;2022-12-11T05:36:58;36.88;;;22.50;;
36411;SDS011;22445;52.100;5.176;2022-12-11T05:39:24;34.83;;;21.23;;
36411;SDS011;22445;52.100;5.176;2022-12-11T05:41:49;37.92;;;21.15;;
36411;SDS011;22445;52.100;5.176;2022-12-11T05:44:15;38.72;;;22.67;;
36411;SDS011;22445;52.100;5.176;2022-12-11T05:46:40;39.08;;;21.23;;
36411;SDS011;22445;52.100;5.176;2022-12-11T05:49:06;39.60;;;22.10;;
36411;SDS011;22445;52.100;5.176;2022-12-11T05:51:32;36.95;;;21.23;;
36411;SDS011;22445;52.100;5.176;2022-12-11T05:53:58;35.92;;;21.38;;
36411;SDS011;22445;52.100;5.176;2022-12-11T05:56:25;37.72;;;21.60;;
36411;SDS011;22445;52.100;5.176;2022-12-11T05:58:52;41.13;;;21.88;;
36411;SDS011;22445;52.100;5.176;2022-12-11T06:01:23;38.47;;;22.35;;
36411;SDS011;22445;52.100;5.176;2022-12-11T06:03:51;38.55;;;21.15;;
36411;SDS011;22445;52.100;5.176;2022-12-11T06:06:17;37.92;;;21.75;;
36411;SDS011;22445;52.100;5.176;2022-12-11T06:08:43;41.50;;;23.08;;
36411;SDS011;22445;52.100;5.176;2022-12-11T06:11:10;40.75;;;23.55;;
36411;SDS011;22445;52.100;5.176;2022-12-11T06:13:37;35.40;;;22.17;;
36411;SDS011;22445;52.100;5.176;2022-12-11T06:16:04;40.45;;;22.30;;
36411;SDS011;22445;52.100;5.176;2022-12-11T06:18:31;38.58;;;21.48;;
36411;SDS011;22445;52.100;5.176;2022-12-11T06:21:00;37.58;;;20.52;;
36411;SDS011;22445;52.100;5.176;2022-12-11T06:23:25;39.00;;;23.10;;
36411;SDS011;22445;52.100;5.176;2022-12-11T06:25:51;37.92;;;21.17;;
36411;SDS011;22445;52.100;5.176;2022-12-11T06:28:17;40.20;;;21.80;;
36411;SDS011;22445;52.100;5.176;2022-12-11T06:30:43;42.05;;;23.30;;
36411;SDS011;22445;52.100;5.176;2022-12-11T06:33:09;41.75;;;21.08;;
36411;SDS011;22445;52.100;5.176;2022-12-11T06:35:35;41.53;;;23.20;;
36411;SDS011;22445;52.100;5.176;2022-12-11T06:38:00;42.90;;;23.52;;
36411;SDS011;22445;52.100;5.176;2022-12-11T06:40:26;40.33;;;22.98;;
36411;SDS011;22445;52.100;5.176;2022-12-11T06:42:52;34.30;;;20.25;;
36411;SDS011;22445;52.100;5.176;2022-12-11T06:45:19;40.38;;;23.63;;
36411;SDS011;22445;52.100;5.176;2022-12-11T06:47:44;43.47;;;23.45;;
36411;SDS011;22445;52.100;5.176;2022-12-11T06:50:10;45.33;;;24.05;;
36411;SDS011;22445;52.100;5.176;2022-12-11T06:52:35;44.08;;;23.13;;
36411;SDS011;22445;52.100;5.176;2022-12-11T06:55:01;42.88;;;23.02;;
36411;SDS011;22445;52.100;5.176;2022-12-11T06:57:26;40.95;;;21.80;;
36411;SDS011;22445;52.100;5.176;2022-12-11T06:59:52;40.17;;;21.75;;
36411;SDS011;22445;52.100;5.176;2022-12-11T07:02:18;41.97;;;22.33;;
36411;SDS011;22445;52.100;5.176;2022-12-11T07:04:44;46.38;;;23.10;;
36411;SDS011;22445;52.100;5.176;2022-12-11T07:07:10;40.92;;;23.42;;
36411;SDS011;22445;52.100;5.176;2022-12-11T07:09:36;44.65;;;23.98;;
36411;SDS011;22445;52.100;5.176;2022-12-11T07:12:03;45.35;;;24.13;;
36411;SDS011;22445;52.100;5.176;2022-12-11T07:14:29;46.75;;;24.05;;
36411;SDS011;22445;52.100;5.176;2022-12-11T07:16:55;44.67;;;23.10;;
36411;SDS011;22445;52.100;5.176;2022-12-11T07:19:22;41.97;;;23.15;;
36411;SDS011;22445;52.100;5.176;2022-12-11T07:21:47;39.75;;;21.20;;
36411;SDS011;22445;52.100;5.176;2022-12-11T07:24:13;40.20;;;21.48;;
36411;SDS011;22445;52.100;5.176;2022-12-11T07:26:39;41.33;;;21.90;;
36411;SDS011;22445;52.100;5.176;2022-12-11T07:29:04;40.45;;;21.10;;
36411;SDS011;22445;52.100;5.176;2022-12-11T07:31:30;36.85;;;21.42;;
36411;SDS011;22445;52.100;5.176;2022-12-11T07:33:56;38.95;;;21.05;;
36411;SDS011;22445;52.100;5.176;2022-12-11T07:36:23;34.85;;;19.17;;
36411;SDS011;22445;52.100;5.176;2022-12-11T07:38:49;36.60;;;20.65;;
36411;SDS011;22445;52.100;5.176;2022-12-11T07:41:15;38.55;;;20.65;;
36411;SDS011;22445;52.100;5.176;2022-12-11T07:43:41;38.08;;;21.48;;
36411;SDS011;22445;52.100;5.176;2022-12-11T07:46:09;32.83;;;20.10;;
36411;SDS011;22445;52.100;5.176;2022-12-11T07:48:36;38.88;;;21.20;;
36411;SDS011;22445;52.100;5.176;2022-12-11T07:51:16;33.28;;;19.05;;
36411;SDS011;22445;52.100;5.176;2022-12-11T07:53:52;33.97;;;20.05;;
36411;SDS011;22445;52.100;5.176;2022-12-11T07:56:19;35.42;;;19.75;;
36411;SDS011;22445;52.100;5.176;2022-12-11T07:58:45;38.53;;;21.25;;
36411;SDS011;22445;52.100;5.176;2022-12-11T08:01:11;37.90;;;21.67;;
36411;SDS011;22445;52.100;5.176;2022-12-11T08:03:40;39.25;;;22.50;;
36411;SDS011;22445;52.100;5.176;2022-12-11T08:06:06;39.88;;;23.23;;
36411;SDS011;22445;52.100;5.176;2022-12-11T08:08:32;37.45;;;20.73;;
36411;SDS011;22445;52.100;5.176;2022-12-11T08:11:01;34.90;;;22.00;;
36411;SDS011;22445;52.100;5.176;2022-12-11T08:13:30;34.63;;;19.13;;
36411;SDS011;22445;52.100;5.176;2022-12-11T08:15:56;29.00;;;18.35;;
36411;SDS011;22445;52.100;5.176;2022-12-11T08:18:22;27.67;;;16.27;;
36411;SDS011;22445;52.100;5.176;2022-12-11T08:20:48;31.63;;;18.75;;
36411;SDS011;22445;52.100;5.176;2022-12-11T08:23:16;26.33;;;16.05;;
36411;SDS011;22445;52.100;5.176;2022-12-11T08:25:42;30.63;;;18.67;;
36411;SDS011;22445;52.100;5.176;2022-12-11T08:28:07;31.55;;;18.98;;
36411;SDS011;22445;52.100;5.176;2022-12-11T08:30:33;33.08;;;19.48;;
36411;SDS011;22445;52.100;5.176;2022-12-11T08:32:59;32.80;;;20.83;;
36411;SDS011;22445;52.100;5.176;2022-12-11T08:35:25;34.28;;;20.77;;
36411;SDS011;22445;52.100;5.176;2022-12-11T08:37:51;31.77;;;19.92;;
36411;SDS011;22445;52.100;5.176;2022-12-11T08:40:16;32.47;;;21.10;;
36411;SDS011;22445;52.100;5.176;2022-12-11T08:42:42;35.65;;;21.75;;
36411;SDS011;22445;52.100;5.176;2022-12-11T08:45:07;36.33;;;21.85;;
36411;SDS011;22445;52.100;5.176;2022-12-11T08:47:33;36.60;;;22.48;;
36411;SDS011;22445;52.100;5.176;2022-12-11T08:49:59;35.53;;;22.48;;
36411;SDS011;22445;52.100;5.176;2022-12-11T08:52:24;35.22;;;22.35;;
36411;SDS011;22445;52.100;5.176;2022-12-11T08:54:50;38.95;;;23.77;;
36411;SDS011;22445;52.100;5.176;2022-12-11T08:57:15;36.05;;;21.92;;
36411;SDS011;22445;52.100;5.176;2022-12-11T08:59:41;41.47;;;24.00;;
36411;SDS011;22445;52.100;5.176;2022-12-11T09:02:09;37.05;;;21.83;;
36411;SDS011;22445;52.100;5.176;2022-12-11T09:04:35;34.78;;;22.55;;
36411;SDS011;22445;52.100;5.176;2022-12-11T09:07:01;38.72;;;23.45;;
36411;SDS011;22445;52.100;5.176;2022-12-11T09:09:26;39.47;;;22.80;;
36411;SDS011;22445;52.100;5.176;2022-12-11T09:11:52;37.20;;;23.65;;
36411;SDS011;22445;52.100;5.176;2022-12-11T09:14:17;35.28;;;22.42;;
36411;SDS011;22445;52.100;5.176;2022-12-11T09:16:43;38.13;;;23.55;;
36411;SDS011;22445;52.100;5.176;2022-12-11T09:19:10;33.70;;;21.83;;
36411;SDS011;22445;52.100;5.176;2022-12-11T09:21:38;34.97;;;21.88;;
36411;SDS011;22445;52.100;5.176;2022-12-11T09:24:03;36.10;;;21.80;;
36411;SDS011;22445;52.100;5.176;2022-12-11T09:26:29;36.10;;;21.58;;
36411;SDS011;22445;52.100;5.176;2022-12-11T09:28:55;36.63;;;22.73;;
36411;SDS011;22445;52.100;5.176;2022-12-11T09:31:25;34.10;;;21.67;;
36411;SDS011;22445;52.100;5.176;2022-12-11T09:33:56;37.30;;;21.83;;
36411;SDS011;22445;52.100;5.176;2022-12-11T09:36:23;33.58;;;21.50;;
36411;SDS011;22445;52.100;5.176;2022-12-11T09:38:49;34.80;;;21.45;;
36411;SDS011;22445;52.100;5.176;2022-12-11T09:47:18;36.20;;;21.40;;
36411;SDS011;22445;52.100;5.176;2022-12-11T10:01:53;34.38;;;20.85;;
36411;SDS011;22445;52.100;5.176;2022-12-11T10:13:54;36.15;;;21.50;;
36411;SDS011;22445;52.100;5.176;2022-12-11T10:19:34;34.15;;;19.90;;
36411;SDS011;22445;52.100;5.176;2022-12-11T10:22:00;34.30;;;19.98;;
36411;SDS011;22445;52.100;5.176;2022-12-11T10:25:00;35.70;;;19.30;;
36411;SDS011;22445;52.100;5.176;2022-12-11T10:27:23;34.53;;;20.15;;
36411;SDS011;22445;52.100;5.176;2022-12-11T10:32:49;33.78;;;19.15;;
36411;SDS011;22445;52.100;5.176;2022-12-11T10:35:19;36.13;;;19.63;;
36411;SDS011;22445;52.100;5.176;2022-12-11T10:37:49;31.10;;;19.42;;
36411;SDS011;22445;52.100;5.176;2022-12-11T10:40:16;32.55;;;18.50;;
36411;SDS011;22445;52.100;5.176;2022-12-11T10:42:50;29.67;;;18.25;;
36411;SDS011;22445;52.100;5.176;2022-12-11T10:45:19;27.92;;;17.27;;
36411;SDS011;22445;52.100;5.176;2022-12-11T10:47:45;29.77;;;18.05;;
36411;SDS011;22445;52.100;5.176;2022-12-11T10:52:54;30.48;;;18.02;;
36411;SDS011;22445;52.100;5.176;2022-12-11T10:58:14;26.75;;;16.90;;
36411;SDS011;22445;52.100;5.176;2022-12-11T11:00:43;29.27;;;17.17;;
36411;SDS011;22445;52.100;5.176;2022-12-11T11:03:25;24.73;;;16.65;;
36411;SDS011;22445;52.100;5.176;2022-12-11T11:08:44;32.63;;;17.65;;
36411;SDS011;22445;52.100;5.176;2022-12-11T11:11:21;27.27;;;16.20;;
36411;SDS011;22445;52.100;5.176;2022-12-11T11:13:49;27.63;;;16.58;;
36411;SDS011;22445;52.100;5.176;2022-12-11T11:16:15;23.45;;;15.30;;
36411;SDS011;22445;52.100;5.176;2022-12-11T11:18:47;28.23;;;16.42;;
36411;SDS011;22445;52.100;5.176;2022-12-11T11:21:17;27.15;;;15.38;;
36411;SDS011;22445;52.100;5.176;2022-12-11T11:23:45;27.45;;;16.63;;
36411;SDS011;22445;52.100;5.176;2022-12-11T11:26:10;25.75;;;15.55;;
36411;SDS011;22445;52.100;5.176;2022-12-11T11:28:38;27.88;;;15.65;;
36411;SDS011;22445;52.100;5.176;2022-12-11T11:31:09;24.70;;;15.27;;
36411;SDS011;22445;52.100;5.176;2022-12-11T11:33:36;26.02;;;16.17;;
36411;SDS011;22445;52.100;5.176;2022-12-11T11:36:18;28.55;;;16.77;;
36411;SDS011;22445;52.100;5.176;2022-12-11T11:42:02;27.08;;;16.08;;
36411;SDS011;22445;52.100;5.176;2022-12-11T11:44:34;26.00;;;15.85;;
36411;SDS011;22445;52.100;5.176;2022-12-11T11:47:18;31.38;;;18.02;;
36411;SDS011;22445;52.100;5.176;2022-12-11T11:52:40;25.48;;;15.65;;
36411;SDS011;22445;52.100;5.176;2022-12-11T11:58:23;28.65;;;17.45;;
36411;SDS011;22445;52.100;5.176;2022-12-11T12:01:01;25.05;;;16.42;;
36411;SDS011;22445;52.100;5.176;2022-12-11T12:03:26;27.65;;;17.15;;
36411;SDS011;22445;52.100;5.176;2022-12-11T12:05:54;28.83;;;18.23;;
36411;SDS011;22445;52.100;5.176;2022-12-11T12:12:07;29.52;;;17.67;;
36411;SDS011;22445;52.100;5.176;2022-12-11T12:27:12;29.60;;;17.58;;
36411;SDS011;22445;52.100;5.176;2022-12-11T12:30:16;35.20;;;18.88;;
36411;SDS011;22445;52.100;5.176;2022-12-11T12:35:52;31.02;;;19.05;;
36411;SDS011;22445;52.100;5.176;2022-12-11T12:38:24;32.55;;;19.48;;
36411;SDS011;22445;52.100;5.176;2022-12-11T12:41:16;31.95;;;19.23;;
36411;SDS011;22445;52.100;5.176;2022-12-11T12:44:09;36.10;;;21.77;;
36411;SDS011;22445;52.100;5.176;2022-12-11T12:49:43;38.75;;;21.92;;
36411;SDS011;22445;52.100;5.176;2022-12-11T12:52:12;40.75;;;22.45;;
36411;SDS011;22445;52.100;5.176;2022-12-11T12:54:41;38.65;;;22.27;;
36411;SDS011;22445;52.100;5.176;2022-12-11T12:57:28;35.35;;;20.45;;
36411;SDS011;22445;52.100;5.176;2022-12-11T12:59:55;38.58;;;20.90;;
36411;SDS011;22445;52.100;5.176;2022-12-11T13:02:20;36.35;;;20.73;;
36411;SDS011;22445;52.100;5.176;2022-12-11T13:04:54;38.70;;;23.10;;
36411;SDS011;22445;52.100;5.176;2022-12-11T13:07:22;38.88;;;22.33;;
36411;SDS011;22445;52.100;5.176;2022-12-11T13:10:06;37.60;;;21.45;;
36411;SDS011;22445;52.100;5.176;2022-12-11T13:12:47;40.78;;;21.75;;
36411;SDS011;22445;52.100;5.176;2022-12-11T13:15:35;36.85;;;21.52;;
36411;SDS011;22445;52.100;5.176;2022-12-11T13:20:58;35.03;;;21.35;;
36411;SDS011;22445;52.100;5.176;2022-12-11T13:23:26;36.35;;;20.73;;
36411;SDS011;22445;52.100;5.176;2022-12-11T13:26:00;40.28;;;21.95;;
36411;SDS011;22445;52.100;5.176;2022-12-11T13:28:31;40.28;;;21.40;;
36411;SDS011;22445;52.100;5.176;2022-12-11T13:31:27;33.83;;;20.05;;
36411;SDS011;22445;52.100;5.176;2022-12-11T13:34:01;39.40;;;21.48;;
36411;SDS011;22445;52.100;5.176;2022-12-11T13:36:50;35.22;;;20.98;;
36411;SDS011;22445;52.100;5.176;2022-12-11T13:39:23;38.83;;;21.75;;
36411;SDS011;22445;52.100;5.176;2022-12-11T13:41:52;37.75;;;20.05;;
36411;SDS011;22445;52.100;5.176;2022-12-11T13:44:22;40.63;;;21.70;;
36411;SDS011;22445;52.100;5.176;2022-12-11T13:46:50;42.72;;;22.48;;
36411;SDS011;22445;52.100;5.176;2022-12-11T13:49:22;39.10;;;21.55;;
36411;SDS011;22445;52.100;5.176;2022-12-11T13:51:56;41.58;;;21.60;;
36411;SDS011;22445;52.100;5.176;2022-12-11T13:54:23;46.08;;;22.08;;
36411;SDS011;22445;52.100;5.176;2022-12-11T13:56:52;40.97;;;22.13;;
36411;SDS011;22445;52.100;5.176;2022-12-11T13:59:41;37.70;;;20.55;;
36411;SDS011;22445;52.100;5.176;2022-12-11T14:05:04;38.58;;;20.77;;
36411;SDS011;22445;52.100;5.176;2022-12-11T14:07:33;41.75;;;21.42;;
36411;SDS011;22445;52.100;5.176;2022-12-11T14:10:07;37.88;;;21.02;;
36411;SDS011;22445;52.100;5.176;2022-12-11T14:15:58;43.08;;;21.25;;
36411;SDS011;22445;52.100;5.176;2022-12-11T14:18:28;41.08;;;20.95;;
36411;SDS011;22445;52.100;5.176;2022-12-11T14:21:03;40.75;;;21.08;;
36411;SDS011;22445;52.100;5.176;2022-12-11T14:23:31;39.50;;;21.25;;
36411;SDS011;22445;52.100;5.176;2022-12-11T14:25:59;43.97;;;22.02;;
36411;SDS011;22445;52.100;5.176;2022-12-11T14:28:28;43.47;;;20.83;;
36411;SDS011;22445;52.100;5.176;2022-12-11T14:31:00;41.08;;;20.85;;
36411;SDS011;22445;52.100;5.176;2022-12-11T14:33:36;41.50;;;20.40;;
36411;SDS011;22445;52.100;5.176;2022-12-11T14:36:04;37.80;;;19.73;;
36411;SDS011;22445;52.100;5.176;2022-12-11T14:38:54;37.95;;;19.63;;
36411;SDS011;22445;52.100;5.176;2022-12-11T14:41:25;40.75;;;21.17;;
36411;SDS011;22445;52.100;5.176;2022-12-11T14:43:55;42.00;;;21.48;;
36411;SDS011;22445;52.100;5.176;2022-12-11T14:46:24;38.10;;;21.17;;
36411;SDS011;22445;52.100;5.176;2022-12-11T14:49:06;37.80;;;20.60;;
36411;SDS011;22445;52.100;5.176;2022-12-11T14:51:40;37.95;;;20.15;;
36411;SDS011;22445;52.100;5.176;2022-12-11T14:54:06;42.90;;;22.10;;
36411;SDS011;22445;52.100;5.176;2022-12-11T14:56:41;44.83;;;22.30;;
36411;SDS011;22445;52.100;5.176;2022-12-11T14:59:14;41.33;;;21.98;;
36411;SDS011;22445;52.100;5.176;2022-12-11T15:01:43;40.58;;;21.52;;
36411;SDS011;22445;52.100;5.176;2022-12-11T15:04:19;37.45;;;20.17;;
36411;SDS011;22445;52.100;5.176;2022-12-11T15:06:49;37.97;;;19.45;;
36411;SDS011;22445;52.100;5.176;2022-12-11T15:12:11;42.92;;;20.95;;
36411;SDS011;22445;52.100;5.176;2022-12-11T15:14:44;41.25;;;20.75;;
36411;SDS011;22445;52.100;5.176;2022-12-11T15:17:35;40.20;;;21.00;;
36411;SDS011;22445;52.100;5.176;2022-12-11T15:20:05;43.60;;;22.08;;
36411;SDS011;22445;52.100;5.176;2022-12-11T15:22:40;38.97;;;19.30;;
36411;SDS011;22445;52.100;5.176;2022-12-11T15:25:15;38.13;;;20.80;;
36411;SDS011;22445;52.100;5.176;2022-12-11T15:27:49;36.95;;;19.50;;
36411;SDS011;22445;52.100;5.176;2022-12-11T15:35:55;34.10;;;19.33;;
36411;SDS011;22445;52.100;5.176;2022-12-11T15:38:33;38.53;;;20.05;;
36411;SDS011;22445;52.100;5.176;2022-12-11T15:41:19;38.80;;;20.38;;
36411;SDS011;22445;52.100;5.176;2022-12-11T15:43:45;40.55;;;20.67;;
36411;SDS011;22445;52.100;5.176;2022-12-11T15:46:11;36.75;;;19.75;;
36411;SDS011;22445;52.100;5.176;2022-12-11T15:48:37;38.05;;;20.40;;
36411;SDS011;22445;52.100;5.176;2022-12-11T15:51:03;32.38;;;18.50;;
36411;SDS011;22445;52.100;5.176;2022-12-11T15:53:28;34.83;;;19.10;;
36411;SDS011;22445;52.100;5.176;2022-12-11T15:55:54;33.88;;;18.65;;
36411;SDS011;22445;52.100;5.176;2022-12-11T15:58:21;33.88;;;19.08;;
36411;SDS011;22445;52.100;5.176;2022-12-11T16:00:48;33.55;;;18.77;;
36411;SDS011;22445;52.100;5.176;2022-12-11T16:03:14;31.42;;;17.58;;
36411;SDS011;22445;52.100;5.176;2022-12-11T16:05:41;34.45;;;18.30;;
36411;SDS011;22445;52.100;5.176;2022-12-11T16:08:17;34.80;;;18.48;;
36411;SDS011;22445;52.100;5.176;2022-12-11T16:10:45;34.28;;;18.90;;
36411;SDS011;22445;52.100;5.176;2022-12-11T16:13:11;33.20;;;18.83;;
36411;SDS011;22445;52.100;5.176;2022-12-11T16:15:37;35.22;;;19.10;;
36411;SDS011;22445;52.100;5.176;2022-12-11T16:18:07;27.40;;;15.68;;
36411;SDS011;22445;52.100;5.176;2022-12-11T16:20:38;26.00;;;14.98;;
36411;SDS011;22445;52.100;5.176;2022-12-11T16:23:04;27.38;;;15.50;;